sensor_id;sensor_type;location;lat;lon;timestamp;pressure;altitude;pressure_sealevel;temperature
79501;BMP180;76397;53.172;18.140;2024-02-26T00:01:49;99404.60;;;1.10
79501;BMP180;76397;53.172;18.140;2024-02-26T00:04:15;99402.60;;;1.20
79501;BMP180;76397;53.172;18.140;2024-02-26T00:06:42;99400.00;;;1.20
79501;BMP180;76397;53.172;18.140;2024-02-26T00:09:10;99397.20;;;1.20
79501;BMP180;76397;53.172;18.140;2024-02-26T00:11:37;99401.20;;;1.10
79501;BMP180;76397;53.172;18.140;2024-02-26T00:14:04;99398.40;;;1.10
79501;BMP180;76397;53.172;18.140;2024-02-26T00:16:31;99400.80;;;0.96
79501;BMP180;76397;53.172;18.140;2024-02-26T00:18:58;99402.80;;;0.80
79501;BMP180;76397;53.172;18.140;2024-02-26T00:21:25;99400.80;;;0.74
79501;BMP180;76397;53.172;18.140;2024-02-26T00:23:53;99400.40;;;0.70
79501;BMP180;76397;53.172;18.140;2024-02-26T00:26:20;99401.80;;;0.76
79501;BMP180;76397;53.172;18.140;2024-02-26T00:28:47;99399.60;;;0.80
79501;BMP180;76397;53.172;18.140;2024-02-26T00:31:14;99400.80;;;0.88
79501;BMP180;76397;53.172;18.140;2024-02-26T00:33:40;99407.00;;;0.90
79501;BMP180;76397;53.172;18.140;2024-02-26T00:36:07;99397.00;;;1.00
79501;BMP180;76397;53.172;18.140;2024-02-26T00:38:35;99393.20;;;1.00
79501;BMP180;76397;53.172;18.140;2024-02-26T00:41:02;99386.80;;;1.00
79501;BMP180;76397;53.172;18.140;2024-02-26T00:43:29;99387.20;;;1.00
79501;BMP180;76397;53.172;18.140;2024-02-26T00:45:55;99388.40;;;0.90
79501;BMP180;76397;53.172;18.140;2024-02-26T00:48:22;99383.00;;;0.90
79501;BMP180;76397;53.172;18.140;2024-02-26T00:50:52;99379.20;;;0.80
79501;BMP180;76397;53.172;18.140;2024-02-26T00:53:18;99381.60;;;0.64
79501;BMP180;76397;53.172;18.140;2024-02-26T00:55:45;99376.40;;;0.50
79501;BMP180;76397;53.172;18.140;2024-02-26T00:58:12;99379.20;;;0.50
79501;BMP180;76397;53.172;18.140;2024-02-26T01:00:39;99380.20;;;0.60
79501;BMP180;76397;53.172;18.140;2024-02-26T01:03:05;99377.60;;;0.70
79501;BMP180;76397;53.172;18.140;2024-02-26T01:05:32;99378.80;;;0.72
79501;BMP180;76397;53.172;18.140;2024-02-26T01:08:00;99379.00;;;0.80
79501;BMP180;76397;53.172;18.140;2024-02-26T01:10:26;99377.00;;;0.80
79501;BMP180;76397;53.172;18.140;2024-02-26T01:12:53;99380.80;;;0.84
79501;BMP180;76397;53.172;18.140;2024-02-26T01:15:20;99383.20;;;0.90
79501;BMP180;76397;53.172;18.140;2024-02-26T01:17:50;99382.60;;;0.80
79501;BMP180;76397;53.172;18.140;2024-02-26T01:20:17;99385.00;;;0.72
79501;BMP180;76397;53.172;18.140;2024-02-26T01:22:44;99388.20;;;0.70
79501;BMP180;76397;53.172;18.140;2024-02-26T01:25:13;99387.00;;;0.72
79501;BMP180;76397;53.172;18.140;2024-02-26T01:27:39;99391.00;;;0.82
79501;BMP180;76397;53.172;18.140;2024-02-26T01:30:10;99395.40;;;1.00
79501;BMP180;76397;53.172;18.140;2024-02-26T01:32:37;99391.40;;;1.10
79501;BMP180;76397;53.172;18.140;2024-02-26T01:35:05;99393.00;;;1.30
79501;BMP180;76397;53.172;18.140;2024-02-26T01:37:36;99386.40;;;1.50
79501;BMP180;76397;53.172;18.140;2024-02-26T01:40:04;99384.40;;;1.60
79501;BMP180;76397;53.172;18.140;2024-02-26T01:42:32;99387.00;;;1.60
79501;BMP180;76397;53.172;18.140;2024-02-26T01:44:59;99389.80;;;1.70
79501;BMP180;76397;53.172;18.140;2024-02-26T01:47:28;99390.40;;;1.78
79501;BMP180;76397;53.172;18.140;2024-02-26T01:49:55;99396.60;;;1.70
79501;BMP180;76397;53.172;18.140;2024-02-26T01:52:22;99400.20;;;1.80
79501;BMP180;76397;53.172;18.140;2024-02-26T01:54:50;99402.00;;;1.80
79501;BMP180;76397;53.172;18.140;2024-02-26T01:57:17;99404.60;;;1.90
79501;BMP180;76397;53.172;18.140;2024-02-26T01:59:45;99404.80;;;1.96
79501;BMP180;76397;53.172;18.140;2024-02-26T02:02:13;99404.20;;;2.16
79501;BMP180;76397;53.172;18.140;2024-02-26T02:04:42;99398.20;;;2.30
79501;BMP180;76397;53.172;18.140;2024-02-26T02:07:08;99407.80;;;2.32
79501;BMP180;76397;53.172;18.140;2024-02-26T02:09:36;99402.00;;;2.40
79501;BMP180;76397;53.172;18.140;2024-02-26T02:12:04;99399.60;;;2.50
79501;BMP180;76397;53.172;18.140;2024-02-26T02:14:31;99401.40;;;2.56
79501;BMP180;76397;53.172;18.140;2024-02-26T02:16:59;99401.80;;;2.50
79501;BMP180;76397;53.172;18.140;2024-02-26T02:19:25;99400.80;;;2.30
79501;BMP180;76397;53.172;18.140;2024-02-26T02:21:52;99404.60;;;2.20
79501;BMP180;76397;53.172;18.140;2024-02-26T02:24:19;99401.60;;;2.10
79501;BMP180;76397;53.172;18.140;2024-02-26T02:26:46;99403.00;;;2.00
79501;BMP180;76397;53.172;18.140;2024-02-26T02:29:14;99393.80;;;1.90
79501;BMP180;76397;53.172;18.140;2024-02-26T02:31:41;99394.00;;;1.72
79501;BMP180;76397;53.172;18.140;2024-02-26T02:34:09;99392.80;;;1.50
79501;BMP180;76397;53.172;18.140;2024-02-26T02:36:57;99395.00;;;1.58
79501;BMP180;76397;53.172;18.140;2024-02-26T02:39:23;99392.20;;;1.60
79501;BMP180;76397;53.172;18.140;2024-02-26T02:41:50;99395.00;;;1.48
79501;BMP180;76397;53.172;18.140;2024-02-26T02:44:17;99393.00;;;1.50
79501;BMP180;76397;53.172;18.140;2024-02-26T02:46:44;99393.60;;;1.40
79501;BMP180;76397;53.172;18.140;2024-02-26T02:49:10;99396.20;;;1.20
79501;BMP180;76397;53.172;18.140;2024-02-26T02:51:37;99398.20;;;1.00
79501;BMP180;76397;53.172;18.140;2024-02-26T02:54:04;99403.00;;;0.90
79501;BMP180;76397;53.172;18.140;2024-02-26T02:56:31;99411.00;;;0.90
79501;BMP180;76397;53.172;18.140;2024-02-26T02:58:58;99407.20;;;0.90
79501;BMP180;76397;53.172;18.140;2024-02-26T03:01:24;99410.00;;;1.00
79501;BMP180;76397;53.172;18.140;2024-02-26T03:03:51;99412.40;;;1.10
79501;BMP180;76397;53.172;18.140;2024-02-26T03:06:18;99413.00;;;1.20
79501;BMP180;76397;53.172;18.140;2024-02-26T03:08:47;99412.60;;;1.26
79501;BMP180;76397;53.172;18.140;2024-02-26T03:11:14;99409.60;;;1.20
79501;BMP180;76397;53.172;18.140;2024-02-26T03:13:42;99405.60;;;1.20
79501;BMP180;76397;53.172;18.140;2024-02-26T03:16:09;99404.40;;;1.20
79501;BMP180;76397;53.172;18.140;2024-02-26T03:18:39;99404.00;;;1.20
79501;BMP180;76397;53.172;18.140;2024-02-26T03:21:07;99404.40;;;1.20
79501;BMP180;76397;53.172;18.140;2024-02-26T03:23:33;99397.60;;;1.20
79501;BMP180;76397;53.172;18.140;2024-02-26T03:26:04;99393.80;;;1.16
79501;BMP180;76397;53.172;18.140;2024-02-26T03:28:31;99394.60;;;1.20
79501;BMP180;76397;53.172;18.140;2024-02-26T03:31:01;99394.00;;;1.10
79501;BMP180;76397;53.172;18.140;2024-02-26T03:33:28;99395.60;;;1.12
79501;BMP180;76397;53.172;18.140;2024-02-26T03:35:55;99394.60;;;1.08
79501;BMP180;76397;53.172;18.140;2024-02-26T03:38:22;99386.60;;;1.00
79501;BMP180;76397;53.172;18.140;2024-02-26T03:40:49;99397.00;;;0.90
79501;BMP180;76397;53.172;18.140;2024-02-26T03:43:16;99397.60;;;0.76
79501;BMP180;76397;53.172;18.140;2024-02-26T03:45:43;99397.80;;;0.60
79501;BMP180;76397;53.172;18.140;2024-02-26T03:48:10;99398.80;;;0.60
79501;BMP180;76397;53.172;18.140;2024-02-26T03:50:37;99398.00;;;0.60
79501;BMP180;76397;53.172;18.140;2024-02-26T03:53:04;99398.60;;;0.60
79501;BMP180;76397;53.172;18.140;2024-02-26T03:55:31;99403.20;;;0.68
79501;BMP180;76397;53.172;18.140;2024-02-26T03:57:57;99409.80;;;0.70
79501;BMP180;76397;53.172;18.140;2024-02-26T04:00:24;99417.00;;;0.76
79501;BMP180;76397;53.172;18.140;2024-02-26T04:02:52;99414.00;;;0.80
79501;BMP180;76397;53.172;18.140;2024-02-26T04:05:19;99415.60;;;0.92
79501;BMP180;76397;53.172;18.140;2024-02-26T04:07:46;99417.60;;;1.00
79501;BMP180;76397;53.172;18.140;2024-02-26T04:10:13;99416.00;;;1.00
79501;BMP180;76397;53.172;18.140;2024-02-26T04:12:41;99415.80;;;1.00
79501;BMP180;76397;53.172;18.140;2024-02-26T04:15:09;99414.40;;;1.10
79501;BMP180;76397;53.172;18.140;2024-02-26T04:17:37;99413.80;;;1.26
79501;BMP180;76397;53.172;18.140;2024-02-26T04:20:06;99412.40;;;1.30
79501;BMP180;76397;53.172;18.140;2024-02-26T04:22:33;99407.40;;;1.20
79501;BMP180;76397;53.172;18.140;2024-02-26T04:25:00;99403.20;;;1.00
79501;BMP180;76397;53.172;18.140;2024-02-26T04:27:27;99397.60;;;0.90
79501;BMP180;76397;53.172;18.140;2024-02-26T04:29:54;99398.60;;;0.82
79501;BMP180;76397;53.172;18.140;2024-02-26T04:32:21;99404.80;;;0.80
79501;BMP180;76397;53.172;18.140;2024-02-26T04:34:48;99409.80;;;0.66
79501;BMP180;76397;53.172;18.140;2024-02-26T04:37:14;99408.80;;;0.50
79501;BMP180;76397;53.172;18.140;2024-02-26T04:39:41;99409.40;;;0.36
79501;BMP180;76397;53.172;18.140;2024-02-26T04:42:08;99405.80;;;0.30
79501;BMP180;76397;53.172;18.140;2024-02-26T04:44:34;99408.40;;;0.30
79501;BMP180;76397;53.172;18.140;2024-02-26T04:47:01;99406.80;;;0.40
79501;BMP180;76397;53.172;18.140;2024-02-26T04:49:28;99405.80;;;0.40
79501;BMP180;76397;53.172;18.140;2024-02-26T04:51:55;99406.40;;;0.60
79501;BMP180;76397;53.172;18.140;2024-02-26T04:54:21;99408.60;;;0.70
79501;BMP180;76397;53.172;18.140;2024-02-26T04:56:48;99404.60;;;0.70
79501;BMP180;76397;53.172;18.140;2024-02-26T04:59:15;99409.20;;;0.70
79501;BMP180;76397;53.172;18.140;2024-02-26T05:01:42;99409.60;;;0.70
79501;BMP180;76397;53.172;18.140;2024-02-26T05:04:08;99407.40;;;0.60
79501;BMP180;76397;53.172;18.140;2024-02-26T05:06:37;99416.40;;;0.52
79501;BMP180;76397;53.172;18.140;2024-02-26T05:09:04;99417.40;;;0.50
79501;BMP180;76397;53.172;18.140;2024-02-26T05:11:31;99419.20;;;0.38
79501;BMP180;76397;53.172;18.140;2024-02-26T05:13:57;99420.40;;;0.30
79501;BMP180;76397;53.172;18.140;2024-02-26T05:16:24;99422.40;;;0.30
79501;BMP180;76397;53.172;18.140;2024-02-26T05:18:53;99427.60;;;0.30
79501;BMP180;76397;53.172;18.140;2024-02-26T05:21:20;99427.80;;;0.30
79501;BMP180;76397;53.172;18.140;2024-02-26T05:23:47;99439.20;;;0.30
79501;BMP180;76397;53.172;18.140;2024-02-26T05:26:21;99444.20;;;0.40
79501;BMP180;76397;53.172;18.140;2024-02-26T05:28:49;99444.00;;;0.40
79501;BMP180;76397;53.172;18.140;2024-02-26T05:31:17;99446.20;;;0.30
79501;BMP180;76397;53.172;18.140;2024-02-26T05:33:44;99448.40;;;0.26
79501;BMP180;76397;53.172;18.140;2024-02-26T05:36:18;99450.20;;;0.12
79501;BMP180;76397;53.172;18.140;2024-02-26T05:38:46;99453.40;;;0.00
79501;BMP180;76397;53.172;18.140;2024-02-26T05:41:15;99449.80;;;-0.04
79501;BMP180;76397;53.172;18.140;2024-02-26T05:43:42;99455.60;;;-0.10
79501;BMP180;76397;53.172;18.140;2024-02-26T05:46:09;99453.00;;;-0.22
79501;BMP180;76397;53.172;18.140;2024-02-26T05:48:36;99454.40;;;-0.38
79501;BMP180;76397;53.172;18.140;2024-02-26T05:51:04;99456.40;;;-0.40
79501;BMP180;76397;53.172;18.140;2024-02-26T05:53:30;99454.20;;;-0.40
79501;BMP180;76397;53.172;18.140;2024-02-26T05:55:57;99457.40;;;-0.30
79501;BMP180;76397;53.172;18.140;2024-02-26T05:58:24;99463.80;;;-0.28
79501;BMP180;76397;53.172;18.140;2024-02-26T06:00:51;99468.00;;;-0.30
79501;BMP180;76397;53.172;18.140;2024-02-26T06:03:17;99472.80;;;-0.22
79501;BMP180;76397;53.172;18.140;2024-02-26T06:05:44;99469.00;;;-0.30
79501;BMP180;76397;53.172;18.140;2024-02-26T06:08:11;99470.20;;;-0.40
79501;BMP180;76397;53.172;18.140;2024-02-26T06:10:39;99471.60;;;-0.50
79501;BMP180;76397;53.172;18.140;2024-02-26T06:13:06;99471.40;;;-0.60
79501;BMP180;76397;53.172;18.140;2024-02-26T06:15:33;99473.20;;;-0.60
79501;BMP180;76397;53.172;18.140;2024-02-26T06:17:59;99471.40;;;-0.60
79501;BMP180;76397;53.172;18.140;2024-02-26T06:20:26;99473.40;;;-0.50
79501;BMP180;76397;53.172;18.140;2024-02-26T06:22:53;99476.20;;;-0.30
79501;BMP180;76397;53.172;18.140;2024-02-26T06:25:20;99480.00;;;-0.10
79501;BMP180;76397;53.172;18.140;2024-02-26T06:27:47;99481.60;;;0.00
79501;BMP180;76397;53.172;18.140;2024-02-26T06:30:14;99483.80;;;0.10
79501;BMP180;76397;53.172;18.140;2024-02-26T06:32:40;99486.40;;;0.20
79501;BMP180;76397;53.172;18.140;2024-02-26T06:35:07;99481.80;;;0.30
79501;BMP180;76397;53.172;18.140;2024-02-26T06:37:36;99484.20;;;0.36
79501;BMP180;76397;53.172;18.140;2024-02-26T06:40:04;99487.80;;;0.60
79501;BMP180;76397;53.172;18.140;2024-02-26T06:42:33;99502.80;;;0.80
79501;BMP180;76397;53.172;18.140;2024-02-26T06:45:00;99498.80;;;0.90
79501;BMP180;76397;53.172;18.140;2024-02-26T06:47:27;99497.20;;;0.90
79501;BMP180;76397;53.172;18.140;2024-02-26T06:49:53;99496.20;;;1.00
79501;BMP180;76397;53.172;18.140;2024-02-26T06:52:24;99500.60;;;1.00
79501;BMP180;76397;53.172;18.140;2024-02-26T06:54:52;99501.60;;;1.06
79501;BMP180;76397;53.172;18.140;2024-02-26T06:57:20;99505.80;;;1.28
79501;BMP180;76397;53.172;18.140;2024-02-26T06:59:47;99504.00;;;1.40
79501;BMP180;76397;53.172;18.140;2024-02-26T07:02:14;99499.40;;;1.50
79501;BMP180;76397;53.172;18.140;2024-02-26T07:04:41;99496.80;;;1.64
79501;BMP180;76397;53.172;18.140;2024-02-26T07:07:08;99497.20;;;1.70
79501;BMP180;76397;53.172;18.140;2024-02-26T07:09:36;99499.20;;;1.80
79501;BMP180;76397;53.172;18.140;2024-02-26T07:12:03;99504.60;;;1.92
79501;BMP180;76397;53.172;18.140;2024-02-26T07:14:30;99509.40;;;2.08
79501;BMP180;76397;53.172;18.140;2024-02-26T07:16:57;99514.40;;;2.10
79501;BMP180;76397;53.172;18.140;2024-02-26T07:19:25;99514.40;;;2.20
79501;BMP180;76397;53.172;18.140;2024-02-26T07:21:51;99510.80;;;2.30
79501;BMP180;76397;53.172;18.140;2024-02-26T07:24:18;99513.20;;;2.44
79501;BMP180;76397;53.172;18.140;2024-02-26T07:26:45;99518.20;;;2.70
79501;BMP180;76397;53.172;18.140;2024-02-26T07:29:12;99514.60;;;2.80
79501;BMP180;76397;53.172;18.140;2024-02-26T07:31:39;99513.40;;;2.90
79501;BMP180;76397;53.172;18.140;2024-02-26T07:34:06;99516.00;;;3.04
79501;BMP180;76397;53.172;18.140;2024-02-26T07:36:32;99517.40;;;3.20
79501;BMP180;76397;53.172;18.140;2024-02-26T07:38:59;99519.20;;;3.40
79501;BMP180;76397;53.172;18.140;2024-02-26T07:41:27;99518.60;;;3.50
79501;BMP180;76397;53.172;18.140;2024-02-26T07:43:54;99527.00;;;3.60
79501;BMP180;76397;53.172;18.140;2024-02-26T07:46:21;99530.40;;;3.60
79501;BMP180;76397;53.172;18.140;2024-02-26T07:48:48;99532.40;;;3.80
79501;BMP180;76397;53.172;18.140;2024-02-26T07:51:14;99539.00;;;4.00
79501;BMP180;76397;53.172;18.140;2024-02-26T07:53:41;99541.00;;;4.00
79501;BMP180;76397;53.172;18.140;2024-02-26T07:56:09;99542.00;;;4.10
79501;BMP180;76397;53.172;18.140;2024-02-26T07:58:35;99538.00;;;4.30
79501;BMP180;76397;53.172;18.140;2024-02-26T08:01:03;99545.00;;;4.68
79501;BMP180;76397;53.172;18.140;2024-02-26T08:03:29;99548.00;;;4.94
79501;BMP180;76397;53.172;18.140;2024-02-26T08:05:56;99552.60;;;5.40
79501;BMP180;76397;53.172;18.140;2024-02-26T08:08:23;99547.40;;;5.76
79501;BMP180;76397;53.172;18.140;2024-02-26T08:10:49;99548.20;;;6.26
79501;BMP180;76397;53.172;18.140;2024-02-26T08:13:16;99555.00;;;6.70
79501;BMP180;76397;53.172;18.140;2024-02-26T08:15:43;99558.00;;;6.60
79501;BMP180;76397;53.172;18.140;2024-02-26T08:18:10;99555.20;;;6.64
79501;BMP180;76397;53.172;18.140;2024-02-26T08:20:36;99557.80;;;7.00
79501;BMP180;76397;53.172;18.140;2024-02-26T08:23:04;99557.60;;;7.50
79501;BMP180;76397;53.172;18.140;2024-02-26T08:25:31;99562.40;;;7.74
79501;BMP180;76397;53.172;18.140;2024-02-26T08:27:58;99571.80;;;7.80
79501;BMP180;76397;53.172;18.140;2024-02-26T08:30:25;99567.20;;;8.00
79501;BMP180;76397;53.172;18.140;2024-02-26T08:32:52;99560.80;;;8.18
79501;BMP180;76397;53.172;18.140;2024-02-26T08:35:20;99559.60;;;8.46
79501;BMP180;76397;53.172;18.140;2024-02-26T08:37:47;99560.00;;;9.04
79501;BMP180;76397;53.172;18.140;2024-02-26T08:40:15;99559.60;;;9.78
79501;BMP180;76397;53.172;18.140;2024-02-26T08:42:42;99568.80;;;10.42
79501;BMP180;76397;53.172;18.140;2024-02-26T08:45:09;99567.60;;;11.18
79501;BMP180;76397;53.172;18.140;2024-02-26T08:47:36;99570.60;;;11.60
79501;BMP180;76397;53.172;18.140;2024-02-26T08:50:04;99570.80;;;11.86
79501;BMP180;76397;53.172;18.140;2024-02-26T08:52:32;99571.40;;;12.32
79501;BMP180;76397;53.172;18.140;2024-02-26T08:54:59;99578.60;;;12.38
79501;BMP180;76397;53.172;18.140;2024-02-26T08:57:26;99579.40;;;12.42
79501;BMP180;76397;53.172;18.140;2024-02-26T08:59:58;99579.00;;;12.60
79501;BMP180;76397;53.172;18.140;2024-02-26T09:02:25;99586.00;;;12.70
79501;BMP180;76397;53.172;18.140;2024-02-26T09:04:52;99589.00;;;12.80
79501;BMP180;76397;53.172;18.140;2024-02-26T09:07:21;99589.60;;;13.08
79501;BMP180;76397;53.172;18.140;2024-02-26T09:09:48;99589.80;;;13.58
79501;BMP180;76397;53.172;18.140;2024-02-26T09:12:15;99593.80;;;14.20
79501;BMP180;76397;53.172;18.140;2024-02-26T09:14:42;99593.20;;;14.80
79501;BMP180;76397;53.172;18.140;2024-02-26T09:17:09;99593.40;;;15.10
79501;BMP180;76397;53.172;18.140;2024-02-26T09:19:35;99596.60;;;15.22
79501;BMP180;76397;53.172;18.140;2024-02-26T09:22:02;99600.80;;;15.40
79501;BMP180;76397;53.172;18.140;2024-02-26T09:24:29;99605.00;;;15.72
79501;BMP180;76397;53.172;18.140;2024-02-26T09:26:56;99606.20;;;15.90
79501;BMP180;76397;53.172;18.140;2024-02-26T09:29:23;99611.60;;;15.60
79501;BMP180;76397;53.172;18.140;2024-02-26T09:31:49;99610.20;;;15.28
79501;BMP180;76397;53.172;18.140;2024-02-26T09:34:16;99613.80;;;15.20
79501;BMP180;76397;53.172;18.140;2024-02-26T09:36:43;99611.60;;;15.40
79501;BMP180;76397;53.172;18.140;2024-02-26T09:39:10;99618.00;;;15.36
79501;BMP180;76397;53.172;18.140;2024-02-26T09:41:38;99610.00;;;15.20
79501;BMP180;76397;53.172;18.140;2024-02-26T09:44:05;99610.60;;;15.40
79501;BMP180;76397;53.172;18.140;2024-02-26T09:46:33;99606.80;;;15.74
79501;BMP180;76397;53.172;18.140;2024-02-26T09:49:00;99612.00;;;16.10
79501;BMP180;76397;53.172;18.140;2024-02-26T09:51:28;99608.40;;;16.00
79501;BMP180;76397;53.172;18.140;2024-02-26T09:53:59;99615.60;;;15.70
79501;BMP180;76397;53.172;18.140;2024-02-26T09:56:29;99614.80;;;15.54
79501;BMP180;76397;53.172;18.140;2024-02-26T09:58:57;99620.00;;;15.60
79501;BMP180;76397;53.172;18.140;2024-02-26T10:01:25;99629.00;;;15.80
79501;BMP180;76397;53.172;18.140;2024-02-26T10:03:56;99628.60;;;15.42
79501;BMP180;76397;53.172;18.140;2024-02-26T10:06:26;99624.80;;;14.88
79501;BMP180;76397;53.172;18.140;2024-02-26T10:08:55;99621.40;;;15.06
79501;BMP180;76397;53.172;18.140;2024-02-26T10:11:25;99623.00;;;15.24
79501;BMP180;76397;53.172;18.140;2024-02-26T10:13:53;99626.00;;;15.40
79501;BMP180;76397;53.172;18.140;2024-02-26T10:16:19;99627.80;;;14.98
79501;BMP180;76397;53.172;18.140;2024-02-26T10:18:52;99626.20;;;14.96
79501;BMP180;76397;53.172;18.140;2024-02-26T10:21:21;99627.40;;;14.70
79501;BMP180;76397;53.172;18.140;2024-02-26T10:23:49;99621.20;;;14.60
79501;BMP180;76397;53.172;18.140;2024-02-26T10:26:20;99622.00;;;14.40
79501;BMP180;76397;53.172;18.140;2024-02-26T10:28:49;99619.00;;;14.20
79501;BMP180;76397;53.172;18.140;2024-02-26T10:31:16;99618.40;;;14.30
79501;BMP180;76397;53.172;18.140;2024-02-26T10:33:43;99620.60;;;14.40
79501;BMP180;76397;53.172;18.140;2024-02-26T10:36:11;99616.80;;;14.40
79501;BMP180;76397;53.172;18.140;2024-02-26T10:38:38;99615.00;;;14.10
79501;BMP180;76397;53.172;18.140;2024-02-26T10:41:13;99615.00;;;14.00
79501;BMP180;76397;53.172;18.140;2024-02-26T10:43:42;99608.60;;;13.60
79501;BMP180;76397;53.172;18.140;2024-02-26T10:46:10;99610.40;;;13.18
79501;BMP180;76397;53.172;18.140;2024-02-26T10:48:37;99604.60;;;12.90
79501;BMP180;76397;53.172;18.140;2024-02-26T10:51:04;99609.40;;;12.78
79501;BMP180;76397;53.172;18.140;2024-02-26T10:53:33;99611.40;;;12.28
79501;BMP180;76397;53.172;18.140;2024-02-26T10:56:04;99617.40;;;11.90
79501;BMP180;76397;53.172;18.140;2024-02-26T10:58:32;99615.00;;;11.70
79501;BMP180;76397;53.172;18.140;2024-02-26T11:00:59;99616.00;;;11.60
79501;BMP180;76397;53.172;18.140;2024-02-26T11:03:29;99616.60;;;11.40
79501;BMP180;76397;53.172;18.140;2024-02-26T11:06:01;99617.60;;;11.50
79501;BMP180;76397;53.172;18.140;2024-02-26T11:08:29;99614.40;;;11.50
79501;BMP180;76397;53.172;18.140;2024-02-26T11:10:57;99620.60;;;11.60
79501;BMP180;76397;53.172;18.140;2024-02-26T11:13:30;99623.00;;;11.54
79501;BMP180;76397;53.172;18.140;2024-02-26T11:15:58;99612.80;;;11.40
79501;BMP180;76397;53.172;18.140;2024-02-26T11:18:27;99608.60;;;11.40
79501;BMP180;76397;53.172;18.140;2024-02-26T11:20:54;99599.00;;;11.40
79501;BMP180;76397;53.172;18.140;2024-02-26T11:23:24;99603.80;;;11.40
79501;BMP180;76397;53.172;18.140;2024-02-26T11:25:54;99603.40;;;11.50
79501;BMP180;76397;53.172;18.140;2024-02-26T11:28:23;99606.20;;;11.42
79501;BMP180;76397;53.172;18.140;2024-02-26T11:30:52;99609.20;;;11.30
79501;BMP180;76397;53.172;18.140;2024-02-26T11:33:20;99609.60;;;11.20
79501;BMP180;76397;53.172;18.140;2024-02-26T11:35:47;99606.80;;;11.30
79501;BMP180;76397;53.172;18.140;2024-02-26T11:38:20;99602.80;;;11.50
79501;BMP180;76397;53.172;18.140;2024-02-26T11:40:48;99602.40;;;11.50
79501;BMP180;76397;53.172;18.140;2024-02-26T11:43:16;99606.60;;;11.50
79501;BMP180;76397;53.172;18.140;2024-02-26T11:48:24;99618.20;;;11.40
79501;BMP180;76397;53.172;18.140;2024-02-26T11:50:54;99624.20;;;11.30
79501;BMP180;76397;53.172;18.140;2024-02-26T11:58:44;99617.60;;;11.50
79501;BMP180;76397;53.172;18.140;2024-02-26T12:01:48;99620.40;;;11.56
79501;BMP180;76397;53.172;18.140;2024-02-26T12:04:23;99618.80;;;11.70
79501;BMP180;76397;53.172;18.140;2024-02-26T12:07:02;99619.60;;;11.70
79501;BMP180;76397;53.172;18.140;2024-02-26T12:09:41;99621.00;;;11.70
79501;BMP180;76397;53.172;18.140;2024-02-26T12:12:10;99617.00;;;11.70
79501;BMP180;76397;53.172;18.140;2024-02-26T12:14:51;99616.80;;;11.70
79501;BMP180;76397;53.172;18.140;2024-02-26T12:17:23;99620.80;;;11.80
79501;BMP180;76397;53.172;18.140;2024-02-26T12:19:52;99616.80;;;11.80
79501;BMP180;76397;53.172;18.140;2024-02-26T12:22:20;99618.80;;;11.90
79501;BMP180;76397;53.172;18.140;2024-02-26T12:24:47;99617.40;;;11.84
79501;BMP180;76397;53.172;18.140;2024-02-26T12:27:14;99616.40;;;11.90
79501;BMP180;76397;53.172;18.140;2024-02-26T12:29:41;99619.80;;;12.00
79501;BMP180;76397;53.172;18.140;2024-02-26T12:32:09;99618.00;;;12.10
79501;BMP180;76397;53.172;18.140;2024-02-26T12:34:37;99616.20;;;12.20
79501;BMP180;76397;53.172;18.140;2024-02-26T12:37:04;99616.60;;;12.20
79501;BMP180;76397;53.172;18.140;2024-02-26T12:39:31;99617.40;;;12.10
79501;BMP180;76397;53.172;18.140;2024-02-26T12:41:58;99614.60;;;12.06
79501;BMP180;76397;53.172;18.140;2024-02-26T12:44:26;99614.80;;;12.00
79501;BMP180;76397;53.172;18.140;2024-02-26T12:47:04;99610.20;;;11.90
79501;BMP180;76397;53.172;18.140;2024-02-26T12:49:31;99607.40;;;11.70
79501;BMP180;76397;53.172;18.140;2024-02-26T12:51:59;99608.40;;;11.60
79501;BMP180;76397;53.172;18.140;2024-02-26T12:54:31;99610.40;;;11.52
79501;BMP180;76397;53.172;18.140;2024-02-26T12:57:01;99601.40;;;11.60
79501;BMP180;76397;53.172;18.140;2024-02-26T12:59:30;99604.00;;;11.60
79501;BMP180;76397;53.172;18.140;2024-02-26T13:01:58;99605.40;;;11.60
79501;BMP180;76397;53.172;18.140;2024-02-26T13:04:28;99604.00;;;11.60
79501;BMP180;76397;53.172;18.140;2024-02-26T13:06:56;99601.00;;;11.70
79501;BMP180;76397;53.172;18.140;2024-02-26T13:09:32;99599.80;;;11.74
79501;BMP180;76397;53.172;18.140;2024-02-26T13:12:00;99603.40;;;11.92
79501;BMP180;76397;53.172;18.140;2024-02-26T13:14:30;99608.60;;;12.10
79501;BMP180;76397;53.172;18.140;2024-02-26T13:16:58;99607.80;;;12.10
79501;BMP180;76397;53.172;18.140;2024-02-26T13:19:25;99609.20;;;12.20
79501;BMP180;76397;53.172;18.140;2024-02-26T13:21:53;99604.20;;;12.20
79501;BMP180;76397;53.172;18.140;2024-02-26T13:24:20;99601.00;;;12.30
79501;BMP180;76397;53.172;18.140;2024-02-26T13:26:55;99602.00;;;12.40
79501;BMP180;76397;53.172;18.140;2024-02-26T13:29:22;99603.40;;;12.40
79501;BMP180;76397;53.172;18.140;2024-02-26T13:31:58;99598.00;;;12.30
79501;BMP180;76397;53.172;18.140;2024-02-26T13:34:29;99600.80;;;12.20
79501;BMP180;76397;53.172;18.140;2024-02-26T13:36:57;99603.40;;;12.30
79501;BMP180;76397;53.172;18.140;2024-02-26T13:39:27;99603.60;;;12.20
79501;BMP180;76397;53.172;18.140;2024-02-26T13:41:55;99608.40;;;12.20
79501;BMP180;76397;53.172;18.140;2024-02-26T13:44:23;99614.60;;;12.30
79501;BMP180;76397;53.172;18.140;2024-02-26T13:46:51;99614.60;;;12.20
79501;BMP180;76397;53.172;18.140;2024-02-26T13:49:17;99617.00;;;12.00
79501;BMP180;76397;53.172;18.140;2024-02-26T13:51:44;99615.20;;;11.98
79501;BMP180;76397;53.172;18.140;2024-02-26T13:54:11;99613.60;;;11.90
79501;BMP180;76397;53.172;18.140;2024-02-26T13:56:39;99611.20;;;11.90
79501;BMP180;76397;53.172;18.140;2024-02-26T13:59:06;99606.80;;;11.90
79501;BMP180;76397;53.172;18.140;2024-02-26T14:01:33;99615.80;;;11.90
79501;BMP180;76397;53.172;18.140;2024-02-26T14:04:00;99615.00;;;11.88
79501;BMP180;76397;53.172;18.140;2024-02-26T14:06:28;99616.20;;;11.80
79501;BMP180;76397;53.172;18.140;2024-02-26T14:08:57;99614.00;;;11.70
79501;BMP180;76397;53.172;18.140;2024-02-26T14:11:23;99611.20;;;11.62
79501;BMP180;76397;53.172;18.140;2024-02-26T14:13:51;99612.00;;;11.60
79501;BMP180;76397;53.172;18.140;2024-02-26T14:16:18;99617.00;;;11.50